Time;durP1;ratioP1;P1;durP2;ratioP2;P2;SDS_P1;SDS_P2;PMS_P1;PMS_P2;Temp;Humidity;BMP_temperature;BMP_pressure;BME280_temperature;BME280_humidity;BME280_pressure;Samples;Min_cycle;Max_cycle;Signal;HPM_P1;HPM_P2
2022/12/20 00:00:44;;;;;;;11.20;8.07;;;;;;;1.88;100.00;101135.25;4991823;28;20077;-75
2022/12/20 00:03:10;;;;;;;11.35;8.43;;;;;;;1.89;99.96;101138.75;4991587;28;20038;-75
2022/12/20 00:05:36;;;;;;;11.02;8.40;;;;;;;1.84;99.66;101133.38;4991352;28;20042;-75
2022/12/20 00:08:02;;;;;;;12.38;8.95;;;;;;;1.79;100.00;101129.69;4993726;28;20045;-75
2022/12/20 00:10:28;;;;;;;13.18;9.70;;;;;;;1.72;100.00;101128.56;4991721;28;20034;-75
2022/12/20 00:12:53;;;;;;;13.95;9.85;;;;;;;1.71;100.00;101126.78;4991624;28;20034;-75
2022/12/20 00:15:19;;;;;;;14.63;10.27;;;;;;;1.68;100.00;101125.81;4974134;28;20085;-75
2022/12/20 00:17:44;;;;;;;13.15;9.60;;;;;;;1.72;100.00;101125.94;4992788;28;20035;-75
2022/12/20 00:20:10;;;;;;;12.27;9.00;;;;;;;1.76;100.00;101126.97;4985275;28;20473;-75
2022/12/20 00:22:36;;;;;;;11.60;8.32;;;;;;;1.83;100.00;101125.50;4988797;28;20022;-75
2022/12/20 00:25:01;;;;;;;12.55;8.75;;;;;;;1.95;100.00;101115.56;4991586;28;20038;-75
2022/12/20 00:27:27;;;;;;;11.90;8.70;;;;;;;2.09;100.00;101113.47;4991264;28;20070;-75
2022/12/20 00:29:52;;;;;;;12.38;8.98;;;;;;;2.22;99.57;101104.41;4974899;28;20060;-75
2022/12/20 00:32:17;;;;;;;11.57;8.38;;;;;;;2.32;99.18;101091.75;4991551;28;20392;-75
2022/12/20 00:34:43;;;;;;;13.27;10.18;;;;;;;2.40;98.29;101090.31;4974065;28;20525;-75
2022/12/20 00:37:08;;;;;;;10.55;8.35;;;;;;;2.48;98.36;101080.16;4991160;28;20133;-75
2022/12/20 00:39:33;;;;;;;12.02;8.85;;;;;;;2.54;97.71;101083.00;4977477;28;20046;-75
2022/12/20 00:41:58;;;;;;;12.15;9.38;;;;;;;2.59;97.48;101076.25;4984779;28;20066;-75
2022/12/20 00:44:24;;;;;;;12.45;9.02;;;;;;;2.59;96.91;101071.03;4991526;28;20073;-75
2022/12/20 00:46:50;;;;;;;11.73;8.70;;;;;;;2.64;96.92;101074.66;4991340;28;20065;-75
2022/12/20 00:49:16;;;;;;;12.02;8.77;;;;;;;2.76;97.09;101073.31;4993683;28;20655;-75
2022/12/20 00:51:41;;;;;;;10.48;7.90;;;;;;;2.83;96.17;101067.50;4991241;28;20049;-75
2022/12/20 00:54:06;;;;;;;12.95;9.50;;;;;;;2.89;95.41;101070.28;4991449;28;20040;-75
2022/12/20 00:56:32;;;;;;;11.05;7.88;;;;;;;2.98;94.79;101070.59;4973446;28;20038;-75
2022/12/20 00:58:58;;;;;;;10.73;8.43;;;;;;;3.06;94.95;101066.50;4974987;28;20044;-75
2022/12/20 01:01:29;;;;;;;10.50;7.93;;;;;;;3.13;94.21;101069.34;4991296;28;20045;-75
2022/12/20 01:03:55;;;;;;;11.85;8.55;;;;;;;3.16;94.04;101064.22;4990112;28;20160;-75
2022/12/20 01:06:22;;;;;;;10.85;7.93;;;;;;;3.21;93.12;101065.25;4990713;28;20110;-75
2022/12/20 01:08:47;;;;;;;11.07;8.25;;;;;;;3.26;92.95;101061.06;4990071;28;20705;-75
2022/12/20 01:11:16;;;;;;;11.68;9.18;;;;;;;3.29;92.70;101037.66;4991318;28;20038;-75
2022/12/20 01:13:44;;;;;;;10.13;7.63;;;;;;;3.29;92.56;101029.84;4973877;28;20040;-75
2022/12/20 01:16:13;;;;;;;9.88;7.63;;;;;;;3.25;92.41;101034.09;4990835;28;20042;-75
2022/12/20 01:18:39;;;;;;;10.43;7.78;;;;;;;3.23;92.34;101043.59;4995914;28;20097;-75
2022/12/20 01:21:07;;;;;;;10.88;7.88;;;;;;;3.29;92.51;101054.22;4992527;28;20556;-75
2022/12/20 01:23:33;;;;;;;12.57;9.07;;;;;;;3.24;92.16;101049.69;4994548;28;20049;-75
2022/12/20 01:26:00;;;;;;;11.73;8.07;;;;;;;3.28;92.27;101064.59;4995522;28;20038;-75
2022/12/20 01:28:26;;;;;;;11.88;8.45;;;;;;;3.30;92.73;101068.13;4994393;28;20030;-75
2022/12/20 01:30:52;;;;;;;9.18;7.28;;;;;;;3.26;92.91;101071.50;4994565;28;20032;-75
2022/12/20 01:33:17;;;;;;;11.13;8.32;;;;;;;3.32;91.78;101070.81;4994289;28;20046;-75
2022/12/20 01:35:54;;;;;;;10.23;7.78;;;;;;;3.35;92.38;101070.88;4976520;28;20044;-75
2022/12/20 01:38:19;;;;;;;11.07;8.07;;;;;;;3.32;92.47;101063.84;4991138;28;20038;-75
2022/12/20 01:40:44;;;;;;;11.15;7.75;;;;;;;3.35;92.14;101058.72;4977196;28;20093;-75
2022/12/20 01:43:14;;;;;;;11.18;8.82;;;;;;;3.36;92.55;101052.69;4976767;28;20027;-75
2022/12/20 01:45:39;;;;;;;11.38;8.52;;;;;;;3.39;92.31;101051.91;4993801;28;20029;-75
2022/12/20 01:48:05;;;;;;;12.88;9.27;;;;;;;3.45;91.75;101041.66;4994406;28;20524;-75
2022/12/20 01:50:31;;;;;;;11.38;8.38;;;;;;;3.50;91.91;101045.28;4997229;28;20045;-75
2022/12/20 01:52:58;;;;;;;11.45;8.63;;;;;;;3.45;92.08;101045.13;4993967;28;20045;-75
2022/12/20 01:55:27;;;;;;;13.18;9.15;;;;;;;3.51;92.51;101045.34;4976273;28;20040;-75
2022/12/20 01:58:00;;;;;;;10.70;8.02;;;;;;;3.62;92.00;101048.28;4993823;28;20038;-75
2022/12/20 02:00:26;;;;;;;10.55;7.70;;;;;;;3.58;91.74;101049.00;4991443;28;20044;-75
2022/12/20 02:02:53;;;;;;;10.75;7.65;;;;;;;3.58;91.94;101055.97;4993776;28;20397;-75
2022/12/20 02:05:20;;;;;;;9.77;7.35;;;;;;;3.63;91.68;101062.22;4976100;28;20456;-75
2022/12/20 02:07:48;;;;;;;11.85;8.43;;;;;;;3.67;91.56;101061.47;4996127;28;20031;-75
2022/12/20 02:10:16;;;;;;;11.73;8.70;;;;;;;3.69;91.68;101065.00;4996658;28;20061;-75
2022/12/20 02:12:46;;;;;;;11.20;8.57;;;;;;;3.62;91.30;101052.63;4976135;28;20027;-75
2022/12/20 02:15:53;;;;;;;11.75;8.25;;;;;;;3.62;92.11;101044.78;4993462;28;20056;-75
2022/12/20 02:18:28;;;;;;;11.00;8.00;;;;;;;3.57;92.23;101056.81;4990488;28;20038;-75
2022/12/20 02:21:18;;;;;;;10.65;8.38;;;;;;;3.61;92.07;101050.81;4979455;28;20054;-75
2022/12/20 02:24:12;;;;;;;11.40;7.97;;;;;;;3.56;92.55;101044.56;4992388;28;20026;-75
2022/12/20 02:27:16;;;;;;;11.45;7.80;;;;;;;3.63;92.25;101042.19;4991444;28;20034;-74
2022/12/20 02:30:09;;;;;;;11.32;8.23;;;;;;;3.67;92.57;101036.25;4992296;28;20401;-75
2022/12/20 02:32:49;;;;;;;9.32;7.03;;;;;;;3.69;92.68;101036.28;4974179;28;20030;-75
2022/12/20 02:35:21;;;;;;;10.55;7.55;;;;;;;3.78;92.49;101041.78;4989027;28;20038;-75
2022/12/20 02:37:48;;;;;;;12.02;7.97;;;;;;;3.83;92.73;101048.03;4975655;28;20121;-75
2022/12/20 02:40:18;;;;;;;10.80;7.80;;;;;;;3.93;92.35;101039.63;4976803;28;20038;-75
2022/12/20 02:42:44;;;;;;;9.48;7.28;;;;;;;3.88;92.06;101033.38;4988409;28;20481;-75
2022/12/20 02:45:16;;;;;;;10.05;7.55;;;;;;;3.89;92.54;101035.13;4975426;28;20035;-75
2022/12/20 02:47:59;;;;;;;10.15;7.53;;;;;;;3.93;91.92;101039.63;4975409;28;20042;-75
2022/12/20 02:50:35;;;;;;;;;;;;;;;3.97;91.98;101052.75;4973800;28;20409;-75
2022/12/20 02:53:01;;;;;;;11.00;7.97;;;;;;;3.94;91.55;101059.66;4992842;28;19917;-75
2022/12/20 02:55:44;;;;;;;10.48;7.20;;;;;;;3.98;91.84;101054.53;4993096;28;20038;-75
2022/12/20 02:58:24;;;;;;;10.55;7.78;;;;;;;4.01;91.73;101058.13;4991521;28;20125;-75
2022/12/20 03:00:52;;;;;;;9.88;7.63;;;;;;;3.98;91.79;101044.06;4977929;28;20104;-75
2022/12/20 03:03:23;;;;;;;9.38;7.07;;;;;;;3.97;91.79;101044.94;4975121;28;20073;-75
2022/12/20 03:05:55;;;;;;;9.10;7.32;;;;;;;3.88;91.41;101038.59;4971959;28;20058;-75
2022/12/20 03:08:22;;;;;;;10.40;7.67;;;;;;;3.79;92.23;101025.28;4971876;23;20040;-74
2022/12/20 03:10:49;;;;;;;10.18;7.75;;;;;;;3.79;92.72;101021.78;4945030;28;20286;-74
2022/12/20 03:13:15;;;;;;;9.45;7.47;;;;;;;3.79;92.95;101027.88;4946352;28;20026;-74
2022/12/20 03:15:49;;;;;;;10.75;8.15;;;;;;;3.85;93.29;101028.06;4950779;28;20035;-74
2022/12/20 03:18:15;;;;;;;10.27;7.68;;;;;;;3.82;92.81;101027.97;4942276;29;20042;-74
2022/12/20 03:20:40;;;;;;;10.60;8.35;;;;;;;3.79;93.70;101033.09;4945068;28;20027;-74
2022/12/20 03:23:06;;;;;;;10.68;7.90;;;;;;;3.91;93.29;101022.16;4941065;29;20036;-74
2022/12/20 03:25:31;;;;;;;9.70;7.20;;;;;;;4.11;93.12;101022.69;4943975;29;20042;-74
2022/12/20 03:27:57;;;;;;;11.07;8.63;;;;;;;4.04;92.22;101026.00;4942080;28;20066;-74
2022/12/20 03:30:24;;;;;;;10.90;7.60;;;;;;;4.05;92.62;101023.41;4948002;28;20040;-74
2022/12/20 03:32:49;;;;;;;10.07;8.25;;;;;;;4.16;92.87;101021.09;4942231;29;20546;-74
2022/12/20 03:35:15;;;;;;;10.20;8.07;;;;;;;4.22;92.03;101022.97;4943999;29;20039;-74
2022/12/20 03:37:41;;;;;;;10.77;8.00;;;;;;;4.16;91.71;101013.25;4948684;28;20035;-74
2022/12/20 03:40:08;;;;;;;11.57;8.57;;;;;;;4.09;92.27;101007.00;4946721;28;20036;-74
2022/12/20 03:42:34;;;;;;;11.65;9.43;;;;;;;4.05;92.30;101005.13;4943002;29;20031;-74
2022/12/20 03:44:59;;;;;;;11.40;8.10;;;;;;;4.05;92.80;101019.91;4942700;29;20122;-74
2022/12/20 03:47:27;;;;;;;12.30;9.07;;;;;;;4.00;92.85;101011.94;4941329;28;20044;-74
2022/12/20 03:49:52;;;;;;;112.63;104.38;;;;;;;3.98;92.70;101018.84;4946226;28;20031;-74
2022/12/20 03:52:18;;;;;;;19.58;18.52;;;;;;;3.93;92.46;101018.75;4942104;29;20036;-74
2022/12/20 03:54:43;;;;;;;29.55;27.95;;;;;;;3.95;92.92;101022.25;4943543;29;20035;-74
2022/12/20 03:57:12;;;;;;;29.05;27.55;;;;;;;4.04;93.11;101013.81;4942106;28;20031;-74
2022/12/20 03:59:37;;;;;;;38.30;36.30;;;;;;;4.08;92.29;101018.25;4948599;28;20093;-73
2022/12/20 04:02:05;;;;;;;40.30;38.30;;;;;;;4.04;92.43;101018.16;4941015;29;20087;-76
2022/12/20 04:04:31;;;;;;;54.30;51.60;;;;;;;3.97;92.25;101008.38;4944046;29;20118;-76
2022/12/20 04:06:56;;;;;;;55.45;52.70;;;;;;;3.90;92.41;101010.81;4942188;29;20046;-76
2022/12/20 04:09:21;;;;;;;46.13;43.83;;;;;;;3.86;92.94;101011.56;4947018;28;20038;-76
2022/12/20 04:11:52;;;;;;;46.53;44.17;;;;;;;3.81;92.68;101010.53;4926740;29;20032;-76
2022/12/20 04:14:17;;;;;;;47.20;44.80;;;;;;;3.78;93.04;101009.56;4943581;28;20039;-76
2022/12/20 04:16:43;;;;;;;54.05;51.35;;;;;;;3.75;93.52;101015.59;4940357;29;20031;-76
2022/12/20 04:19:09;;;;;;;52.38;49.78;;;;;;;3.71;93.58;101011.09;4945633;28;20510;-77
2022/12/20 04:21:41;;;;;;;46.42;44.00;;;;;;;3.65;94.10;101004.00;4946294;28;20118;-76
2022/12/20 04:24:07;;;;;;;57.95;55.05;;;;;;;3.62;94.33;101003.03;4927380;29;20524;-76
2022/12/20 04:26:51;;;;;;;60.78;57.78;;;;;;;3.60;94.98;101004.69;4942259;29;20042;-76
2022/12/20 04:29:17;;;;;;;70.38;67.00;;;;;;;3.65;94.74;100997.88;4944425;28;20121;-76
2022/12/20 04:31:43;;;;;;;72.13;68.70;;;;;;;3.66;94.46;100994.44;4945448;29;20035;-77
2022/12/20 04:34:09;;;;;;;70.07;66.72;;;;;;;3.65;94.22;100993.53;4947670;28;20402;-76
2022/12/20 04:36:34;;;;;;;74.85;71.32;;;;;;;3.65;94.25;100983.09;4943074;29;20080;-74
2022/12/20 04:39:03;;;;;;;76.60;72.88;;;;;;;3.63;94.19;100994.34;4947465;28;20050;-74
2022/12/20 04:41:37;;;;;;;89.00;84.75;;;;;;;3.59;94.69;100995.06;4935981;28;20039;-74
2022/12/20 04:44:08;;;;;;;71.80;68.32;;;;;;;3.61;94.99;100994.28;4941208;29;20035;-74
2022/12/20 04:46:35;;;;;;;78.13;74.45;;;;;;;3.62;95.08;100992.59;4927996;29;20067;-74
2022/12/20 04:49:01;;;;;;;78.75;75.00;;;;;;;3.58;95.82;100991.59;4927280;28;20482;-74
2022/12/20 04:51:30;;;;;;;74.25;70.75;;;;;;;3.68;95.58;100987.53;4948197;28;20134;-74
2022/12/20 04:53:55;;;;;;;80.78;76.95;;;;;;;3.79;95.50;100982.63;4943844;29;20402;-74
2022/12/20 04:56:33;;;;;;;78.75;74.95;;;;;;;3.85;95.23;100982.78;4944918;29;20043;-74
2022/12/20 04:59:06;;;;;;;87.07;82.95;;;;;;;3.90;94.59;100984.72;4949415;28;20402;-74
2022/12/20 05:01:32;;;;;;;87.68;83.57;;;;;;;3.90;95.15;100984.72;4950653;28;20046;-74
2022/12/20 05:03:57;;;;;;;95.20;90.75;;;;;;;3.98;95.40;100991.84;4945586;29;20031;-74
2022/12/20 05:06:26;;;;;;;91.68;87.30;;;;;;;4.05;94.90;100981.63;4945691;28;20063;-74
2022/12/20 05:08:53;;;;;;;95.90;91.32;;;;;;;4.13;94.84;100974.88;4952392;28;20066;-74
2022/12/20 05:11:19;;;;;;;93.82;89.38;;;;;;;4.07;95.05;100981.66;4949658;28;20035;-74
2022/12/20 05:13:45;;;;;;;97.32;92.70;;;;;;;4.13;95.01;100979.22;4945987;28;20031;-74
2022/12/20 05:16:12;;;;;;;109.03;104.00;;;;;;;4.14;95.03;100978.38;4944783;29;20032;-73
2022/12/20 05:18:38;;;;;;;95.13;90.60;;;;;;;4.21;94.93;100975.06;4945831;28;20035;-74
2022/12/20 05:26:55;;;;;;;1999.90;999.90;;;;;;;4.28;94.23;100961.34;4945678;29;20651;-74
2022/12/20 05:29:20;;;;;;;1999.90;999.90;;;;;;;4.28;93.96;100978.75;4945984;28;20091;-74
2022/12/20 05:31:46;;;;;;;1999.90;999.90;;;;;;;4.33;95.03;100969.31;4944660;29;20565;-74
2022/12/20 05:34:11;;;;;;;1999.90;999.90;;;;;;;4.43;95.26;100962.56;4945484;29;20038;-73
2022/12/20 05:36:39;;;;;;;1999.90;999.90;;;;;;;4.48;96.01;100945.28;4942927;29;20525;-74
2022/12/20 05:39:06;;;;;;;1999.90;999.90;;;;;;;4.53;95.05;100948.88;4946791;28;20039;-74
2022/12/20 05:41:36;;;;;;;1999.90;999.90;;;;;;;4.56;95.59;100956.84;4951245;28;20031;-74
2022/12/20 05:44:02;;;;;;;1999.90;999.90;;;;;;;4.67;96.30;100960.59;4945048;28;20082;-73
2022/12/20 05:46:31;;;;;;;1999.90;999.90;;;;;;;4.69;95.44;100951.06;4942736;28;20043;-74
2022/12/20 05:49:00;;;;;;;1999.90;999.90;;;;;;;4.72;95.15;100948.50;4943268;28;20039;-74
2022/12/20 05:51:26;;;;;;;1999.90;999.90;;;;;;;4.77;94.64;100953.88;4932956;29;20048;-74
2022/12/20 05:54:01;;;;;;;1999.90;999.90;;;;;;;4.84;94.96;100948.78;4943048;28;20095;-74
2022/12/20 05:56:39;;;;;;;1999.90;999.90;;;;;;;4.83;94.08;100961.84;4944080;29;20066;-74
2022/12/20 05:59:04;;;;;;;1999.90;999.90;;;;;;;4.87;94.24;100963.66;4941607;28;20065;-74
2022/12/20 06:01:30;;;;;;;1999.90;999.90;;;;;;;4.92;94.15;100967.28;4947337;28;20053;-74
2022/12/20 06:03:58;;;;;;;1999.90;999.90;;;;;;;4.93;93.96;100960.34;4947290;28;20035;-74
2022/12/20 06:06:23;;;;;;;1999.90;999.90;;;;;;;4.93;93.48;100958.59;4946378;29;20490;-74
2022/12/20 06:08:49;;;;;;;1999.90;999.90;;;;;;;4.91;93.18;100967.25;4943253;28;20570;-74
2022/12/20 06:11:27;;;;;;;1999.90;999.90;;;;;;;4.73;93.75;100965.97;4947526;28;20035;-74
2022/12/20 06:13:58;;;;;;;1999.90;999.90;;;;;;;4.68;93.49;100964.09;4943187;28;20031;-74
2022/12/20 06:16:24;;;;;;;1999.90;999.90;;;;;;;4.59;93.38;100977.81;4943923;29;20039;-74
2022/12/20 06:18:52;;;;;;;1999.90;999.90;;;;;;;4.56;93.83;100977.75;4944595;28;20050;-74
2022/12/20 06:21:18;;;;;;;1999.90;999.90;;;;;;;4.39;94.29;100972.06;4948996;28;20119;-74
2022/12/20 06:23:43;;;;;;;1999.90;999.90;;;;;;;4.38;94.61;100979.03;4946606;28;20024;-75
2022/12/20 06:26:11;;;;;;;1999.90;999.90;;;;;;;4.43;94.53;100988.69;4944383;29;20031;-74
2022/12/20 06:28:51;;;;;;;1999.90;999.90;;;;;;;4.34;94.59;100990.22;4925656;29;20042;-74
2022/12/20 06:31:19;;;;;;;1999.90;999.90;;;;;;;4.33;94.89;100987.59;4945447;28;20478;-74
2022/12/20 06:33:47;;;;;;;1999.90;999.90;;;;;;;4.29;94.51;100973.53;4944020;29;20129;-74
2022/12/20 06:36:14;;;;;;;1999.90;999.90;;;;;;;4.26;95.21;100977.81;4943821;29;20498;-74
2022/12/20 06:38:41;;;;;;;1999.90;999.90;;;;;;;4.32;95.57;100981.50;4942300;28;20041;-74
2022/12/20 06:41:06;;;;;;;1999.90;999.90;;;;;;;4.33;95.12;100971.91;4953884;28;20417;-74
2022/12/20 06:43:31;;;;;;;1999.90;999.90;;;;;;;4.42;95.47;100968.66;4949548;28;20023;-74
2022/12/20 06:45:57;;;;;;;1999.90;999.90;;;;;;;4.34;95.39;100955.38;4942229;28;20039;-74
2022/12/20 06:48:22;;;;;;;1999.90;999.90;;;;;;;4.32;94.88;100963.19;4943784;28;20090;-74
2022/12/20 06:50:49;;;;;;;1999.90;999.90;;;;;;;4.21;95.91;100954.16;4949489;28;20518;-74
2022/12/20 06:53:15;;;;;;;1999.90;999.90;;;;;;;4.14;96.30;100962.72;4942246;28;20522;-74
2022/12/20 06:55:41;;;;;;;1999.90;999.90;;;;;;;4.02;96.41;100971.09;4944619;28;20118;-74
2022/12/20 06:58:06;;;;;;;1999.90;999.90;;;;;;;4.02;97.06;100972.81;4943018;29;20035;-73
2022/12/20 07:00:32;;;;;;;1999.90;999.90;;;;;;;4.13;96.54;100974.00;4947246;28;20514;-74
2022/12/20 07:02:57;;;;;;;1999.90;999.90;;;;;;;4.13;95.99;100981.81;4950533;28;20642;-74
2022/12/20 07:05:22;;;;;;;1999.90;999.90;;;;;;;4.16;96.50;100988.00;4943856;29;20123;-74
2022/12/20 07:07:48;;;;;;;1999.90;999.90;;;;;;;4.21;95.78;100969.84;4946110;28;20035;-74
2022/12/20 07:10:14;;;;;;;1999.90;999.90;;;;;;;4.18;96.20;100975.88;4946654;28;20039;-74
2022/12/20 07:12:39;;;;;;;1999.90;999.90;;;;;;;4.19;95.64;100976.75;4945180;29;20105;-74
2022/12/20 07:15:06;;;;;;;1999.90;999.90;;;;;;;4.19;95.59;100971.53;4943002;28;20123;-74
2022/12/20 07:17:32;;;;;;;1999.90;999.90;;;;;;;4.16;95.34;100971.44;4944144;28;20062;-74
2022/12/20 07:19:57;;;;;;;1999.90;999.90;;;;;;;4.14;95.78;100967.94;4951068;28;20070;-74
2022/12/20 07:22:22;;;;;;;1999.90;999.90;;;;;;;4.14;96.03;100970.56;4943375;29;20047;-73
2022/12/20 07:24:49;;;;;;;1999.90;999.90;;;;;;;4.16;96.28;100977.56;4945448;29;20078;-74
2022/12/20 07:27:14;;;;;;;1999.90;999.90;;;;;;;4.15;96.89;100970.56;4945379;28;20039;-74
2022/12/20 07:29:40;;;;;;;1999.90;999.90;;;;;;;4.11;96.92;100968.75;4950564;28;20042;-74
2022/12/20 07:32:06;;;;;;;1999.90;999.90;;;;;;;4.08;96.53;100966.03;4943064;29;20046;-74
2022/12/20 07:34:32;;;;;;;1999.90;999.90;;;;;;;4.16;97.11;100969.72;4943914;29;20406;-74
2022/12/20 07:36:57;;;;;;;1999.90;999.90;;;;;;;4.28;96.33;100971.78;4942905;28;20078;-74
2022/12/20 07:39:23;;;;;;;1999.90;999.90;;;;;;;4.43;95.41;100973.94;4948895;28;20051;-73
2022/12/20 07:41:52;;;;;;;1999.90;999.90;;;;;;;4.42;94.75;100973.88;4945750;28;20047;-74
2022/12/20 07:44:22;;;;;;;1999.90;999.90;;;;;;;4.35;94.57;100971.13;4942183;29;20502;-74
2022/12/20 07:46:47;;;;;;;1999.90;999.90;;;;;;;4.27;95.04;100966.50;4943128;29;20070;-74
2022/12/20 07:49:13;;;;;;;1999.90;999.90;;;;;;;4.27;94.91;100966.50;4946016;28;20099;-74
2022/12/20 07:51:47;;;;;;;1999.90;999.90;;;;;;;4.27;94.60;100954.34;4949077;28;20038;-74
2022/12/20 07:54:17;;;;;;;1999.90;999.90;;;;;;;4.17;94.11;100947.13;4943968;29;20039;-74
2022/12/20 07:56:46;;;;;;;1999.90;999.90;;;;;;;4.14;94.33;100960.09;4944247;29;20035;-74
2022/12/20 07:59:14;;;;;;;1999.90;999.90;;;;;;;4.24;94.06;100969.03;4945898;28;20398;-74
2022/12/20 08:01:43;;;;;;;12.90;11.60;;;;;;;4.34;94.12;100971.94;4948279;28;20102;-74
2022/12/20 08:04:13;;;;;;;14.50;13.15;;;;;;;4.44;93.87;100982.66;4942572;29;20438;-74
2022/12/20 08:06:40;;;;;;;14.93;13.52;;;;;;;4.41;93.28;100982.56;4944493;29;20086;-74
2022/12/20 08:09:06;;;;;;;12.75;10.70;;;;;;;4.46;93.69;100986.19;4941831;29;20036;-74
2022/12/20 08:11:34;;;;;;;11.52;10.32;;;;;;;4.50;93.56;100999.34;4953281;28;20046;-74
2022/12/20 08:13:59;;;;;;;13.60;11.90;;;;;;;4.51;92.84;100993.31;4942407;28;20468;-74
2022/12/20 08:16:25;;;;;;;12.43;10.73;;;;;;;4.57;93.12;100989.97;4943443;29;20126;-74
2022/12/20 08:18:50;;;;;;;14.35;12.85;;;;;;;4.61;92.71;100976.09;4942411;28;20050;-74
2022/12/20 08:21:16;;;;;;;14.13;11.98;;;;;;;4.62;92.04;100972.66;4945935;28;20064;-74
2022/12/20 08:23:41;;;;;;;13.32;11.93;;;;;;;4.57;91.90;100979.50;4946951;28;20483;-74
2022/12/20 08:26:07;;;;;;;14.07;12.57;;;;;;;4.54;92.08;100980.31;4946042;29;20043;-74
2022/12/20 08:28:32;;;;;;;13.02;11.63;;;;;;;4.48;91.94;100980.16;4947552;28;20035;-74
2022/12/20 08:31:02;;;;;;;12.63;11.32;;;;;;;4.61;91.44;100982.25;4953324;28;20104;-74
2022/12/20 08:33:28;;;;;;;12.57;11.25;;;;;;;4.69;91.28;100976.28;4951180;28;20039;-74
2022/12/20 08:35:58;;;;;;;14.60;13.15;;;;;;;4.66;91.42;100978.84;4943814;29;20045;-74
2022/12/20 08:38:25;;;;;;;13.77;12.38;;;;;;;4.64;90.61;100976.19;4947534;28;20453;-74
2022/12/20 08:40:51;;;;;;;13.45;12.15;;;;;;;4.61;90.88;100983.94;4950883;28;20087;-74
2022/12/20 08:43:16;;;;;;;14.02;12.68;;;;;;;4.68;90.91;100975.41;4947040;28;20427;-74
2022/12/20 08:45:41;;;;;;;7.10;6.70;;;;;;;4.62;90.46;100977.88;4949838;28;20497;-74
2022/12/20 08:48:07;;;;;;;6.63;6.22;;;;;;;4.68;90.53;100966.69;4945484;28;20495;-74
2022/12/20 08:50:32;;;;;;;5.90;5.50;;;;;;;4.69;90.34;100968.44;4949827;28;20031;-74
2022/12/20 08:52:57;;;;;;;5.95;5.55;;;;;;;4.68;90.36;100961.47;4947566;29;20107;-73
2022/12/20 08:55:23;;;;;;;5.57;5.18;;;;;;;4.78;90.10;100973.91;4953706;28;20031;-74
2022/12/20 08:57:48;;;;;;;6.10;5.70;;;;;;;4.87;89.82;100963.66;4946380;28;20050;-74
2022/12/20 09:00:14;;;;;;;5.22;4.93;;;;;;;4.93;89.24;100962.97;4954146;28;20043;-73
2022/12/20 09:02:40;;;;;;;6.72;6.32;;;;;;;4.87;88.52;100952.31;4945289;29;20035;-74
2022/12/20 09:05:05;;;;;;;6.50;6.10;;;;;;;4.90;88.26;100952.41;4948304;29;20410;-74
2022/12/20 09:07:31;;;;;;;6.47;6.07;;;;;;;4.86;88.18;100961.03;4951023;28;20032;-74
2022/12/20 09:09:56;;;;;;;6.13;5.72;;;;;;;4.94;87.75;100975.16;4950888;28;20118;-74
2022/12/20 09:12:21;;;;;;;6.25;5.85;;;;;;;4.88;87.39;100968.06;4979595;23;20381;-74
2022/12/20 09:14:46;;;;;;;6.35;5.95;;;;;;;4.95;87.31;100979.53;4985666;28;20558;-74
2022/12/20 09:17:12;;;;;;;6.05;5.65;;;;;;;4.97;86.95;100975.25;4991230;28;20046;-74
2022/12/20 09:19:37;;;;;;;6.18;5.78;;;;;;;5.03;86.97;100964.91;4985331;28;20046;-74
2022/12/20 09:22:03;;;;;;;6.15;5.75;;;;;;;5.16;86.88;100971.31;4968928;28;20068;-74
2022/12/20 09:24:28;;;;;;;6.53;6.13;;;;;;;5.16;86.21;100961.75;4983942;28;20405;-74
2022/12/20 09:26:54;;;;;;;5.72;5.32;;;;;;;5.23;86.38;100963.63;4987537;28;20033;-74
2022/12/20 09:29:19;;;;;;;6.35;5.95;;;;;;;5.19;86.28;100961.81;4984563;28;20042;-73
2022/12/20 09:31:44;;;;;;;5.15;4.85;;;;;;;5.14;85.70;100960.84;4989899;28;20039;-74
2022/12/20 09:34:10;;;;;;;6.05;5.65;;;;;;;4.99;85.96;100969.19;4986025;28;20030;-74
2022/12/20 09:36:35;;;;;;;5.85;5.45;;;;;;;4.98;86.36;100980.53;4987129;28;20049;-73
2022/12/20 09:39:00;;;;;;;5.70;5.30;;;;;;;4.94;86.58;100980.41;4986288;28;20034;-74
2022/12/20 09:41:31;;;;;;;6.18;5.78;;;;;;;4.99;87.27;100984.00;4988697;28;20563;-74
2022/12/20 09:43:58;;;;;;;6.03;5.63;;;;;;;5.04;86.07;100982.38;4985310;28;20027;-74
2022/12/20 09:46:25;;;;;;;5.88;5.47;;;;;;;4.89;86.16;100977.66;4982573;28;20042;-74
2022/12/20 09:48:51;;;;;;;6.20;5.80;;;;;;;4.94;86.64;100969.94;4989754;28;20026;-74
2022/12/20 09:51:44;;;;;;;5.55;5.15;;;;;;;4.96;85.85;100971.75;4987943;28;20078;-73
2022/12/20 09:54:27;;;;;;;6.03;5.63;;;;;;;4.99;86.05;100963.97;4983748;28;20042;-74
2022/12/20 09:57:12;;;;;;;4.93;4.63;;;;;;;4.83;86.77;100962.72;4982773;28;20097;-74
2022/12/20 09:59:41;;;;;;;5.88;5.47;;;;;;;4.93;86.11;100978.66;4987126;28;20096;-74
2022/12/20 10:02:10;;;;;;;5.75;5.35;;;;;;;5.14;85.75;100971.28;4985299;28;20044;-74
2022/12/20 10:04:36;;;;;;;5.90;5.50;;;;;;;5.32;84.92;100970.84;4984299;28;20034;-74
2022/12/20 10:07:17;;;;;;;6.45;6.05;;;;;;;5.40;85.02;100973.63;4982857;28;20030;-75
2022/12/20 10:10:16;;;;;;;6.20;5.80;;;;;;;5.54;84.70;100972.16;4984751;28;20057;-74
2022/12/20 10:12:59;;;;;;;5.88;5.47;;;;;;;5.62;82.85;100967.97;4976960;28;20034;-74
2022/12/20 10:15:30;;;;;;;;;;;;;;;5.63;82.74;100964.53;4984416;28;20409;-74
2022/12/20 10:18:05;;;;;;;6.30;5.90;;;;;;;5.67;83.51;100963.72;4982314;28;19913;-74
2022/12/20 10:21:00;;;;;;;6.10;5.70;;;;;;;5.63;82.49;100959.28;4988020;28;20041;-74
2022/12/20 10:23:39;;;;;;;6.05;5.65;;;;;;;5.46;82.84;100947.56;4967803;28;20039;-74
2022/12/20 10:26:09;;;;;;;6.00;5.60;;;;;;;5.53;83.08;100944.22;4979539;28;20035;-74
2022/12/20 10:28:35;;;;;;;6.18;5.78;;;;;;;5.51;83.32;100938.06;4983448;28;20034;-74
2022/12/20 10:31:03;;;;;;;6.30;5.90;;;;;;;5.47;82.92;100939.72;4985814;28;20465;-74
2022/12/20 10:33:30;;;;;;;6.20;5.80;;;;;;;5.39;83.08;100946.53;4968223;28;20038;-73
2022/12/20 10:36:21;;;;;;;6.78;6.38;;;;;;;5.32;82.43;100951.59;4961556;28;20093;-74
2022/12/20 10:38:50;;;;;;;6.40;6.00;;;;;;;5.40;83.45;100955.31;4981422;28;20129;-74
2022/12/20 10:41:19;;;;;;;6.20;5.80;;;;;;;5.27;83.21;100952.41;4993854;28;20121;-74
2022/12/20 10:43:48;;;;;;;6.50;6.10;;;;;;;5.34;83.82;100956.03;4990773;28;20033;-73
2022/12/20 10:46:17;;;;;;;5.43;5.03;;;;;;;5.52;83.34;100950.31;4983751;28;20406;-74
2022/12/20 10:48:44;;;;;;;5.53;5.13;;;;;;;5.69;82.46;100943.69;4994078;28;20059;-74
2022/12/20 10:51:11;;;;;;;5.70;5.30;;;;;;;5.68;82.48;100928.81;4989674;28;20493;-74
2022/12/20 10:54:01;;;;;;;5.55;5.15;;;;;;;5.77;81.39;100909.78;4984090;28;20038;-74
2022/12/20 10:56:32;;;;;;;6.15;5.75;;;;;;;5.93;82.39;100903.13;4986888;28;20105;-73
2022/12/20 10:59:16;;;;;;;6.28;5.88;;;;;;;6.01;81.42;100896.31;4981983;28;20046;-74
2022/12/20 11:01:44;;;;;;;6.38;5.93;;;;;;;5.97;81.09;100891.84;4993123;28;20061;-73
2022/12/20 11:04:31;;;;;;;6.22;5.82;;;;;;;6.00;81.36;100886.69;4983972;28;20041;-73
2022/12/20 11:07:00;;;;;;;6.28;5.88;;;;;;;5.99;80.64;100886.66;4981663;28;20458;-74
2022/12/20 11:09:36;;;;;;;6.25;5.85;;;;;;;6.33;79.86;100882.88;5101113;27;20401;-75
2022/12/20 11:12:02;;;;;;;6.60;6.10;;;;;;;6.40;79.68;100876.88;5092776;28;20039;-75
2022/12/20 11:14:28;;;;;;;6.38;5.97;;;;;;;6.40;80.00;100881.25;5068516;28;20037;-75
2022/12/20 11:16:55;;;;;;;6.15;5.75;;;;;;;6.47;80.36;100873.50;5068197;28;20032;-76
2022/12/20 11:20:03;;;;;;;6.07;5.68;;;;;;;6.35;79.04;100876.81;5068487;28;20566;-75
2022/12/20 11:22:40;;;;;;;5.88;5.47;;;;;;;6.31;78.94;100871.47;5078285;28;20047;-75
2022/12/20 11:25:22;;;;;;;5.85;5.45;;;;;;;6.24;79.27;100851.28;5065719;28;20119;-75
2022/12/20 11:28:21;;;;;;;6.38;5.97;;;;;;;6.11;79.70;100843.22;5065706;28;20031;-75
2022/12/20 11:31:06;;;;;;;5.80;5.40;;;;;;;6.09;80.16;100837.06;5067118;28;20136;-76
2022/12/20 11:34:02;;;;;;;5.75;5.35;;;;;;;5.89;80.13;100826.22;5066482;28;20037;-75